Time;durP1;ratioP1;P1;durP2;ratioP2;P2;SDS_P1;SDS_P2;PMS_P1;PMS_P2;Temp;Humidity;BMP_temperature;BMP_pressure;BME280_temperature;BME280_humidity;BME280_pressure;Samples;Min_cycle;Max_cycle;Signal;HPM_P1;HPM_P2
2022/03/06 00:01:21;;;;;;;5.82;5.32;;;20.30;44.20;;;;;;4958868;28;20178;-67
2022/03/06 00:03:49;;;;;;;6.30;5.70;;;20.30;44.30;;;;;;4958613;28;20193;-68
2022/03/06 00:06:16;;;;;;;6.20;5.60;;;20.30;44.40;;;;;;4958325;28;20756;-68
2022/03/06 00:08:42;;;;;;;5.85;5.35;;;20.30;44.30;;;;;;4973500;28;20208;-68
2022/03/06 00:11:08;;;;;;;5.63;5.13;;;20.40;44.40;;;;;;4975599;28;20210;-69
2022/03/06 00:13:35;;;;;;;5.45;5.05;;;20.40;44.40;;;;;;4958202;28;20210;-68
2022/03/06 00:16:01;;;;;;;6.15;5.63;;;20.30;44.30;;;;;;4942323;28;20652;-67
2022/03/06 00:18:27;;;;;;;5.63;5.13;;;20.40;44.40;;;;;;4942591;28;20264;-68
2022/03/06 00:20:54;;;;;;;5.75;5.20;;;20.40;44.40;;;;;;4942460;28;20189;-68
2022/03/06 00:23:20;;;;;;;6.13;5.60;;;20.40;44.30;;;;;;4957804;28;20236;-69
2022/03/06 00:25:47;;;;;;;5.95;5.35;;;20.40;44.20;;;;;;4958067;28;20190;-68
2022/03/06 00:28:13;;;;;;;6.72;6.13;;;20.30;44.10;;;;;;4958383;28;20201;-68
2022/03/06 00:30:40;;;;;;;6.57;5.97;;;20.30;44.10;;;;;;4942121;28;20224;-68
2022/03/06 00:33:06;;;;;;;7.03;6.35;;;20.30;44.10;;;;;;4958001;28;20212;-69
2022/03/06 00:35:32;;;;;;;6.25;5.63;;;20.30;44.00;;;;;;4957871;28;20185;-68
2022/03/06 00:37:59;;;;;;;6.35;5.75;;;20.30;44.00;;;;;;4957900;28;20192;-69
2022/03/06 00:40:25;;;;;;;6.63;6.03;;;20.30;43.90;;;;;;4975040;28;20189;-68
2022/03/06 00:42:52;;;;;;;6.57;5.97;;;20.30;44.00;;;;;;4941473;28;20686;-68
2022/03/06 00:45:18;;;;;;;6.22;5.63;;;20.30;43.90;;;;;;4941776;28;20189;-68
2022/03/06 00:47:44;;;;;;;5.82;5.32;;;20.30;44.10;;;;;;4957763;28;20185;-68
2022/03/06 00:50:11;;;;;;;5.97;5.38;;;20.30;44.10;;;;;;4974821;28;20690;-68
2022/03/06 00:52:39;;;;;;;6.05;5.43;;;20.30;44.10;;;;;;4941514;28;20296;-68
2022/03/06 00:55:06;;;;;;;6.13;5.55;;;20.30;44.10;;;;;;4957354;28;20280;-68
2022/03/06 00:57:32;;;;;;;5.68;5.18;;;20.30;44.20;;;;;;4973553;28;20190;-67
2022/03/06 00:59:58;;;;;;;6.35;5.82;;;20.30;44.20;;;;;;4957605;28;20228;-68
2022/03/06 01:02:27;;;;;;;5.88;5.38;;;20.30;44.20;;;;;;4941449;28;20228;-69
2022/03/06 01:04:52;;;;;;;5.80;5.30;;;20.30;44.20;;;;;;4941262;28;20586;-68
2022/03/06 01:07:18;;;;;;;5.90;5.28;;;20.30;44.20;;;;;;4941528;28;20280;-68
2022/03/06 01:09:44;;;;;;;5.72;5.22;;;20.30;44.20;;;;;;4941405;28;20269;-68
2022/03/06 01:12:12;;;;;;;5.78;5.28;;;20.30;44.20;;;;;;4957370;28;20221;-68
2022/03/06 01:14:38;;;;;;;6.00;5.50;;;20.30;44.10;;;;;;4941510;28;20236;-69
2022/03/06 01:17:04;;;;;;;6.60;6.00;;;20.30;44.10;;;;;;4957421;28;20217;-67
2022/03/06 01:19:30;;;;;;;6.03;5.47;;;20.30;44.00;;;;;;4974307;28;20186;-68
2022/03/06 01:21:56;;;;;;;6.45;5.85;;;20.30;44.00;;;;;;4956968;28;20682;-68
2022/03/06 01:24:22;;;;;;;6.15;5.55;;;20.30;44.00;;;;;;4956663;28;20185;-68
2022/03/06 01:26:47;;;;;;;6.20;5.70;;;20.20;43.80;;;;;;4941343;28;20185;-68
2022/03/06 01:29:13;;;;;;;6.00;5.45;;;20.30;43.80;;;;;;4956849;28;20269;-68
2022/03/06 01:31:39;;;;;;;6.25;5.68;;;20.20;43.70;;;;;;4956652;28;20240;-68
2022/03/06 01:34:06;;;;;;;6.28;5.57;;;20.20;43.70;;;;;;4956503;28;20673;-68
2022/03/06 01:36:32;;;;;;;6.30;5.70;;;20.20;44.30;;;;;;4972911;28;20193;-68
2022/03/06 01:38:58;;;;;;;5.93;5.43;;;20.20;43.60;;;;;;4956976;28;20189;-68
2022/03/06 01:41:24;;;;;;;5.63;5.10;;;20.20;43.70;;;;;;4956626;28;20201;-68
2022/03/06 01:43:50;;;;;;;5.70;5.20;;;20.20;43.80;;;;;;4956519;28;20574;-68
2022/03/06 01:46:15;;;;;;;5.35;4.85;;;20.20;43.80;;;;;;4973972;28;20213;-68
2022/03/06 01:48:41;;;;;;;5.75;5.25;;;20.20;43.90;;;;;;4941086;28;20197;-68
2022/03/06 01:51:07;;;;;;;5.32;4.82;;;20.20;43.90;;;;;;4956869;28;20216;-68
2022/03/06 01:53:33;;;;;;;5.25;4.75;;;20.20;43.90;;;;;;4940282;28;20200;-68
2022/03/06 01:55:59;;;;;;;5.63;5.13;;;20.20;43.90;;;;;;4956876;28;20267;-68
2022/03/06 01:58:26;;;;;;;5.18;4.68;;;20.20;43.80;;;;;;4940531;28;20181;-68
2022/03/06 02:00:51;;;;;;;6.13;5.63;;;20.20;44.00;;;;;;4940629;28;20190;-68
2022/03/06 02:03:19;;;;;;;5.82;5.32;;;20.20;43.90;;;;;;4940156;28;20228;-68
2022/03/06 02:05:45;;;;;;;5.88;5.35;;;20.20;44.00;;;;;;4973624;28;20266;-68
2022/03/06 02:08:12;;;;;;;5.68;5.18;;;20.20;43.90;;;;;;4940478;28;20189;-68
2022/03/06 02:10:38;;;;;;;6.47;5.88;;;20.20;44.00;;;;;;4956369;28;20217;-69
2022/03/06 02:13:05;;;;;;;6.18;5.60;;;20.20;43.80;;;;;;4956235;28;20213;-68
2022/03/06 02:15:31;;;;;;;5.95;5.38;;;20.20;43.80;;;;;;4940410;28;20635;-68
2022/03/06 02:17:57;;;;;;;6.15;5.55;;;20.20;43.70;;;;;;4956304;28;20189;-69
2022/03/06 02:20:25;;;;;;;6.40;5.70;;;20.20;43.70;;;;;;4956316;28;20182;-68
2022/03/06 02:22:59;;;;;;;6.00;5.45;;;20.20;43.70;;;;;;4972050;28;20213;-67
2022/03/06 02:25:29;;;;;;;6.05;5.47;;;20.20;43.60;;;;;;4956451;28;20190;-68
2022/03/06 02:27:59;;;;;;;6.57;5.97;;;20.20;43.60;;;;;;4973916;28;20539;-68
2022/03/06 02:30:29;;;;;;;5.85;5.30;;;20.20;43.70;;;;;;4941031;28;20221;-68
2022/03/06 02:32:58;;;;;;;5.53;5.03;;;20.20;43.70;;;;;;4960572;28;20263;-68
2022/03/06 02:35:25;;;;;;;5.55;5.05;;;20.20;43.70;;;;;;4977519;28;20186;-69
2022/03/06 02:37:51;;;;;;;5.68;5.18;;;20.20;43.80;;;;;;4944100;28;20235;-68
2022/03/06 02:40:20;;;;;;;5.60;5.10;;;20.10;43.70;;;;;;4960268;28;20604;-68
2022/03/06 02:42:48;;;;;;;5.20;4.70;;;20.20;43.90;;;;;;4960233;28;20216;-68
2022/03/06 02:45:18;;;;;;;5.57;5.07;;;20.20;43.80;;;;;;4960136;28;20194;-68
2022/03/06 02:47:46;;;;;;;5.32;4.82;;;20.10;43.70;;;;;;4960183;28;20178;-69
2022/03/06 02:50:16;;;;;;;5.63;5.13;;;20.20;43.80;;;;;;4975934;28;20192;-68
2022/03/06 02:52:42;;;;;;;5.85;5.32;;;20.20;43.80;;;;;;4975864;28;20296;-69
2022/03/06 02:55:09;;;;;;;6.38;5.72;;;20.20;43.80;;;;;;4975780;28;20225;-68
2022/03/06 02:57:36;;;;;;;5.50;5.00;;;20.20;43.70;;;;;;4959748;28;20614;-68
2022/03/06 03:00:06;;;;;;;6.40;5.80;;;20.20;43.70;;;;;;4959737;28;20192;-68
2022/03/06 03:02:32;;;;;;;6.70;6.10;;;20.20;43.60;;;;;;4959418;28;20698;-68
2022/03/06 03:04:58;;;;;;;6.43;5.82;;;20.20;43.50;;;;;;4976667;28;20193;-68
2022/03/06 03:07:24;;;;;;;6.43;5.93;;;20.10;43.40;;;;;;4975983;28;20197;-68
2022/03/06 03:09:49;;;;;;;7.28;6.57;;;20.10;43.40;;;;;;4975602;28;20189;-69
2022/03/06 03:12:15;;;;;;;6.65;6.05;;;20.10;43.30;;;;;;4976598;28;20229;-68
2022/03/06 03:14:41;;;;;;;5.95;5.45;;;20.10;43.20;;;;;;4975375;28;20284;-68
2022/03/06 03:17:07;;;;;;;5.70;5.20;;;20.10;43.50;;;;;;4959373;28;20193;-68
2022/03/06 03:19:33;;;;;;;6.25;5.70;;;20.10;43.40;;;;;;4959610;28;20186;-68
2022/03/06 03:21:59;;;;;;;5.80;5.30;;;20.10;43.50;;;;;;4975331;28;20260;-69
2022/03/06 03:24:26;;;;;;;6.28;5.68;;;20.10;43.50;;;;;;4958963;28;20189;-68
2022/03/06 03:26:52;;;;;;;6.25;5.75;;;20.10;43.50;;;;;;4974963;28;20190;-68
2022/03/06 03:29:18;;;;;;;6.00;5.47;;;20.20;43.60;;;;;;4959129;28;20194;-68
2022/03/06 03:31:44;;;;;;;5.32;4.90;;;20.10;43.60;;;;;;4975765;28;20271;-69
2022/03/06 03:34:11;;;;;;;6.20;5.60;;;20.10;44.20;;;;;;4958326;28;20200;-68
2022/03/06 03:36:36;;;;;;;5.90;5.38;;;20.10;43.60;;;;;;4959196;28;20197;-68
2022/03/06 03:39:03;;;;;;;5.60;5.00;;;20.10;44.20;;;;;;4958857;28;20190;-68
2022/03/06 03:41:29;;;;;;;5.85;5.35;;;20.20;43.70;;;;;;4958278;28;20193;-67
2022/03/06 03:43:55;;;;;;;5.43;4.93;;;20.20;43.70;;;;;;4957769;28;20248;-69
2022/03/06 03:46:21;;;;;;;6.10;5.60;;;20.20;43.70;;;;;;4942784;28;20190;-68
2022/03/06 03:48:47;;;;;;;5.78;5.28;;;20.20;43.70;;;;;;4943179;28;20190;-66
2022/03/06 03:51:13;;;;;;;6.47;5.88;;;20.20;43.70;;;;;;4957578;28;20297;-68
2022/03/06 03:53:39;;;;;;;6.93;6.22;;;20.20;43.60;;;;;;4958462;28;20205;-67
2022/03/06 03:56:06;;;;;;;6.57;5.97;;;20.20;43.50;;;;;;4959016;28;20174;-68
2022/03/06 03:58:33;;;;;;;5.95;5.40;;;20.20;43.50;;;;;;4974748;28;20190;-67
2022/03/06 04:01:00;;;;;;;6.47;5.88;;;20.10;43.40;;;;;;4958574;28;20196;-68
2022/03/06 04:03:26;;;;;;;6.07;5.47;;;20.10;43.30;;;;;;4942251;28;20264;-69
2022/03/06 04:05:52;;;;;;;6.53;5.93;;;20.20;43.50;;;;;;4958367;28;20651;-68
2022/03/06 04:08:19;;;;;;;7.32;6.63;;;20.10;43.20;;;;;;4958562;28;20182;-68
2022/03/06 04:10:45;;;;;;;6.50;5.90;;;20.10;43.30;;;;;;4942396;28;20609;-68
2022/03/06 04:13:11;;;;;;;6.20;5.70;;;20.10;43.30;;;;;;4958238;28;20213;-69
2022/03/06 04:15:37;;;;;;;6.25;5.70;;;20.10;43.40;;;;;;4974393;28;20670;-68
2022/03/06 04:18:03;;;;;;;5.60;5.10;;;20.10;43.50;;;;;;4974337;28;20209;-68
2022/03/06 04:20:30;;;;;;;6.32;5.82;;;20.10;43.50;;;;;;4974712;28;20212;-68
2022/03/06 04:22:57;;;;;;;5.53;5.03;;;20.10;43.50;;;;;;4958406;28;20209;-68
2022/03/06 04:25:23;;;;;;;5.97;5.47;;;20.20;43.60;;;;;;4975431;28;20185;-68
2022/03/06 04:27:49;;;;;;;5.63;5.13;;;20.10;43.50;;;;;;4958049;28;20280;-68
2022/03/06 04:30:15;;;;;;;6.43;5.82;;;20.10;43.50;;;;;;4958197;28;20325;-68
2022/03/06 04:32:41;;;;;;;5.32;4.93;;;20.10;43.50;;;;;;4942345;28;20260;-69
2022/03/06 04:35:07;;;;;;;6.10;5.60;;;20.10;43.60;;;;;;4957821;28;20181;-69
2022/03/06 04:37:34;;;;;;;5.93;5.43;;;20.10;43.60;;;;;;4958005;28;20192;-68
2022/03/06 04:39:59;;;;;;;5.80;5.30;;;20.20;43.70;;;;;;4973915;28;20191;-68
2022/03/06 04:42:25;;;;;;;5.72;5.18;;;20.20;43.70;;;;;;4941725;28;20206;-68
2022/03/06 04:44:51;;;;;;;5.90;5.40;;;20.20;43.70;;;;;;4957643;28;20236;-67
2022/03/06 04:47:17;;;;;;;6.43;5.82;;;20.20;43.60;;;;;;4957962;28;20201;-68
2022/03/06 04:49:43;;;;;;;5.78;5.28;;;20.20;43.60;;;;;;4957627;28;20189;-68
2022/03/06 04:52:08;;;;;;;5.85;5.35;;;20.20;44.20;;;;;;4941401;28;20233;-68
2022/03/06 04:54:34;;;;;;;6.10;5.60;;;20.20;43.50;;;;;;4947576;28;20218;-68
2022/03/06 04:57:03;;;;;;;6.40;5.80;;;20.10;43.40;;;;;;4976839;28;20191;-69
2022/03/06 04:59:29;;;;;;;6.47;5.88;;;20.10;43.40;;;;;;4960824;28;20333;-68
2022/03/06 05:01:55;;;;;;;6.63;6.03;;;20.10;43.30;;;;;;4976853;28;20212;-68
2022/03/06 05:04:21;;;;;;;7.30;6.63;;;20.10;43.40;;;;;;4993860;28;20591;-68
2022/03/06 05:06:47;;;;;;;6.32;5.72;;;20.10;43.40;;;;;;4976714;28;20242;-68
2022/03/06 05:09:13;;;;;;;6.50;5.90;;;20.10;43.30;;;;;;4976570;28;20283;-68
2022/03/06 05:11:39;;;;;;;6.30;5.72;;;20.10;43.40;;;;;;4976350;28;20212;-68
2022/03/06 05:14:05;;;;;;;5.93;5.43;;;20.10;44.00;;;;;;4992532;28;20185;-68
2022/03/06 05:16:31;;;;;;;6.10;5.60;;;20.10;43.40;;;;;;4976504;28;20223;-67
2022/03/06 05:18:56;;;;;;;6.65;6.05;;;20.10;43.60;;;;;;4976368;28;20600;-69
2022/03/06 05:21:23;;;;;;;5.47;5.00;;;20.10;43.50;;;;;;4960367;28;20603;-69
2022/03/06 05:23:49;;;;;;;6.18;5.60;;;20.10;43.50;;;;;;4975934;28;20331;-68
2022/03/06 05:26:15;;;;;;;6.07;5.57;;;20.10;43.50;;;;;;4976515;28;20279;-68
2022/03/06 05:28:41;;;;;;;5.75;5.25;;;20.10;43.50;;;;;;4976282;28;20232;-68
2022/03/06 05:31:10;;;;;;;5.57;4.90;;;20.10;43.50;;;;;;4960028;28;20212;-68
2022/03/06 05:33:36;;;;;;;5.97;5.38;;;20.10;43.60;;;;;;4960158;28;20589;-68
2022/03/06 05:36:04;;;;;;;6.55;5.95;;;20.10;43.60;;;;;;4976105;28;20180;-68
2022/03/06 05:38:29;;;;;;;5.90;5.40;;;20.10;43.50;;;;;;4976281;28;20200;-68
2022/03/06 05:40:55;;;;;;;6.47;5.93;;;20.10;43.50;;;;;;4976168;28;20197;-68
2022/03/06 05:43:21;;;;;;;5.90;5.40;;;20.10;43.50;;;;;;4994307;28;20204;-68
2022/03/06 05:45:50;;;;;;;6.22;5.72;;;20.10;43.40;;;;;;4976234;28;20234;-68
2022/03/06 05:48:18;;;;;;;6.57;5.97;;;20.10;43.50;;;;;;4975967;28;20188;-67
2022/03/06 05:50:44;;;;;;;6.78;6.18;;;20.10;43.40;;;;;;4976011;28;20227;-68
2022/03/06 05:53:10;;;;;;;6.57;5.97;;;20.10;43.40;;;;;;4976075;28;20204;-68
2022/03/06 05:55:36;;;;;;;6.78;6.18;;;20.10;43.30;;;;;;4959517;28;20205;-68
2022/03/06 05:58:02;;;;;;;6.65;6.05;;;20.10;43.30;;;;;;4959729;28;20197;-68
2022/03/06 06:00:28;;;;;;;6.30;5.80;;;20.10;43.30;;;;;;4959820;28;20189;-68
2022/03/06 06:02:58;;;;;;;6.00;5.50;;;20.10;43.30;;;;;;4975736;28;20271;-68
2022/03/06 06:05:24;;;;;;;6.22;5.72;;;20.10;43.30;;;;;;4958757;28;20189;-68
2022/03/06 06:07:50;;;;;;;6.03;5.53;;;20.10;43.40;;;;;;4975944;28;20177;-68
2022/03/06 06:10:16;;;;;;;6.03;5.53;;;20.10;43.40;;;;;;4959417;28;20235;-68
2022/03/06 06:12:42;;;;;;;5.90;5.40;;;20.10;43.40;;;;;;4959721;28;20211;-69
2022/03/06 06:15:09;;;;;;;6.28;5.78;;;20.10;43.50;;;;;;4959550;28;20271;-68
2022/03/06 06:17:36;;;;;;;6.60;6.00;;;20.10;43.50;;;;;;4959428;28;20284;-68
2022/03/06 06:20:05;;;;;;;6.38;5.78;;;20.10;43.50;;;;;;4959509;28;20193;-68
2022/03/06 06:22:32;;;;;;;6.32;5.78;;;20.10;43.50;;;;;;4975504;28;20232;-68
2022/03/06 06:24:58;;;;;;;6.50;5.90;;;20.10;43.50;;;;;;4992789;28;20216;-68
2022/03/06 06:27:25;;;;;;;6.35;5.78;;;20.10;43.50;;;;;;4975459;28;20195;-68
2022/03/06 06:29:51;;;;;;;6.60;5.93;;;20.10;43.60;;;;;;4975810;28;20200;-68
2022/03/06 06:32:17;;;;;;;6.07;5.57;;;20.10;43.50;;;;;;4975249;28;20232;-68
2022/03/06 06:34:44;;;;;;;6.40;5.90;;;20.10;43.50;;;;;;4959441;28;20185;-68
2022/03/06 06:37:11;;;;;;;7.05;6.45;;;20.10;43.50;;;;;;4959620;28;20181;-68
2022/03/06 06:39:37;;;;;;;6.53;5.93;;;20.10;43.40;;;;;;4959647;28;20239;-69
2022/03/06 06:42:05;;;;;;;6.38;5.60;;;20.10;43.30;;;;;;4992665;28;20209;-69
2022/03/06 06:44:32;;;;;;;6.88;6.28;;;20.10;43.30;;;;;;4975215;28;20662;-68
2022/03/06 06:46:58;;;;;;;6.90;6.28;;;20.10;43.30;;;;;;4959240;28;20236;-68
2022/03/06 06:49:23;;;;;;;7.38;6.68;;;20.10;43.30;;;;;;4959552;28;20229;-68
2022/03/06 06:51:49;;;;;;;6.68;6.07;;;20.10;43.30;;;;;;4991256;28;20302;-68
2022/03/06 06:54:15;;;;;;;6.40;5.80;;;20.10;43.10;;;;;;4991391;28;20189;-69
2022/03/06 06:56:42;;;;;;;6.60;6.00;;;20.10;43.30;;;;;;4959148;28;20189;-68
2022/03/06 06:59:09;;;;;;;6.45;5.88;;;20.10;43.30;;;;;;4992701;28;20181;-68
2022/03/06 07:01:35;;;;;;;5.82;5.35;;;20.10;43.40;;;;;;4959025;28;20196;-68
2022/03/06 07:04:01;;;;;;;6.10;5.60;;;20.10;43.40;;;;;;4992351;28;20195;-68
2022/03/06 07:06:27;;;;;;;5.90;5.40;;;20.10;43.40;;;;;;4975125;28;20654;-69
2022/03/06 07:08:52;;;;;;;6.20;5.70;;;20.10;43.40;;;;;;4975464;28;20284;-68
2022/03/06 07:11:18;;;;;;;6.07;5.57;;;20.10;43.40;;;;;;4975021;28;20219;-68
2022/03/06 07:13:44;;;;;;;6.57;5.90;;;20.10;43.40;;;;;;4959043;28;20196;-69
2022/03/06 07:16:09;;;;;;;6.07;5.50;;;20.10;43.40;;;;;;4975526;28;20206;-70
2022/03/06 07:18:36;;;;;;;6.70;6.05;;;20.10;43.50;;;;;;4962313;28;20189;-68
2022/03/06 07:21:02;;;;;;;6.45;5.85;;;20.10;43.40;;;;;;4978596;28;20193;-68
2022/03/06 07:23:30;;;;;;;6.32;5.72;;;20.10;43.50;;;;;;4962236;28;20217;-68
2022/03/06 07:25:56;;;;;;;6.45;5.75;;;20.10;43.50;;;;;;4978627;28;20189;-68
2022/03/06 07:28:22;;;;;;;6.53;5.90;;;20.10;43.40;;;;;;4962471;28;20662;-68
2022/03/06 07:30:48;;;;;;;6.95;6.35;;;20.10;43.40;;;;;;4978710;28;20217;-68
2022/03/06 07:33:14;;;;;;;6.15;5.60;;;20.10;43.30;;;;;;4978261;28;20201;-68
2022/03/06 07:35:41;;;;;;;6.70;6.10;;;20.10;43.40;;;;;;4978474;28;20274;-68
2022/03/06 07:38:07;;;;;;;6.30;5.80;;;20.10;43.40;;;;;;4995781;28;20204;-67
2022/03/06 07:40:33;;;;;;;6.85;6.25;;;20.10;43.40;;;;;;4962672;28;20284;-68
2022/03/06 07:43:00;;;;;;;6.75;6.15;;;20.10;43.30;;;;;;4995550;28;20209;-68
2022/03/06 07:45:26;;;;;;;6.95;6.30;;;20.10;43.10;;;;;;4978234;28;20185;-68
2022/03/06 07:47:52;;;;;;;6.68;6.07;;;20.10;42.90;;;;;;4995901;28;20169;-68
2022/03/06 07:50:18;;;;;;;7.10;6.47;;;20.10;42.90;;;;;;4978104;28;20268;-68
2022/03/06 07:52:45;;;;;;;6.40;5.82;;;20.20;43.20;;;;;;4977956;28;20223;-68
2022/03/06 07:55:13;;;;;;;6.28;5.68;;;20.20;43.00;;;;;;4961804;28;20199;-68
2022/03/06 07:57:39;;;;;;;6.38;5.78;;;20.10;43.00;;;;;;4994227;28;20203;-68
2022/03/06 08:00:10;;;;;;;6.47;5.82;;;20.20;43.10;;;;;;4978232;28;20208;-68
2022/03/06 08:02:37;;;;;;;6.53;5.93;;;20.20;43.00;;;;;;4961670;28;20220;-68
2022/03/06 08:05:04;;;;;;;6.32;5.72;;;20.20;43.20;;;;;;4995152;28;20180;-68
2022/03/06 08:07:30;;;;;;;6.90;6.30;;;20.30;43.20;;;;;;4994183;28;20223;-68
2022/03/06 08:09:56;;;;;;;6.32;5.82;;;20.30;43.10;;;;;;4977780;28;20223;-68
2022/03/06 08:12:24;;;;;;;6.63;5.93;;;20.40;43.10;;;;;;4977380;28;20283;-68
2022/03/06 08:14:51;;;;;;;6.30;5.70;;;20.40;43.10;;;;;;4977764;28;20666;-68
2022/03/06 08:17:18;;;;;;;5.93;5.43;;;20.40;43.10;;;;;;4995138;28;20189;-68
2022/03/06 08:19:44;;;;;;;6.32;5.82;;;20.50;43.20;;;;;;4993896;28;20260;-68
2022/03/06 08:22:10;;;;;;;7.07;6.38;;;20.50;43.10;;;;;;4961358;28;20205;-68
2022/03/06 08:24:36;;;;;;;6.85;6.35;;;20.50;43.00;;;;;;4994714;28;20716;-68
2022/03/06 08:27:02;;;;;;;7.25;6.55;;;20.50;43.00;;;;;;4977661;28;20227;-67
2022/03/06 08:29:28;;;;;;;6.60;6.00;;;20.50;43.00;;;;;;4960706;28;20227;-68
2022/03/06 08:31:53;;;;;;;6.90;6.30;;;20.50;43.00;;;;;;4977338;28;20604;-68
2022/03/06 08:34:19;;;;;;;6.82;6.15;;;20.50;43.00;;;;;;4994491;28;20192;-68
2022/03/06 08:36:45;;;;;;;6.95;6.32;;;20.50;42.80;;;;;;4961537;28;20187;-68
2022/03/06 08:39:11;;;;;;;6.72;6.13;;;20.50;43.00;;;;;;4957681;28;20193;-68
2022/03/06 08:41:37;;;;;;;7.45;6.75;;;20.50;43.50;;;;;;4957784;28;20269;-69
2022/03/06 08:44:03;;;;;;;6.63;6.00;;;20.50;42.80;;;;;;4941493;28;20647;-68
2022/03/06 08:46:29;;;;;;;6.15;5.55;;;20.50;42.90;;;;;;4975058;28;20185;-69
2022/03/06 08:48:54;;;;;;;6.50;5.90;;;20.50;42.80;;;;;;4957965;28;20190;-67
2022/03/06 08:51:20;;;;;;;6.38;5.78;;;20.50;42.70;;;;;;4973936;28;20217;-68
2022/03/06 08:53:46;;;;;;;6.15;5.65;;;20.50;42.80;;;;;;4957577;28;20202;-67
2022/03/06 08:56:12;;;;;;;6.72;6.13;;;20.60;42.70;;;;;;4957529;28;20178;-68
2022/03/06 08:58:37;;;;;;;6.50;5.90;;;20.60;42.70;;;;;;4973803;28;20185;-68
2022/03/06 09:01:03;;;;;;;6.22;5.70;;;20.60;42.70;;;;;;4957692;28;20182;-67
2022/03/06 09:03:30;;;;;;;6.45;5.90;;;20.50;42.70;;;;;;4941768;28;20217;-66
2022/03/06 09:05:56;;;;;;;6.15;5.65;;;20.60;43.30;;;;;;4957417;28;20248;-68
2022/03/06 09:08:22;;;;;;;6.47;5.88;;;20.50;42.70;;;;;;4957190;28;20248;-68
2022/03/06 09:10:48;;;;;;;6.80;6.10;;;20.60;42.70;;;;;;4974684;28;20197;-67
2022/03/06 09:13:14;;;;;;;6.15;5.65;;;20.60;42.70;;;;;;4957400;28;20210;-67
2022/03/06 09:15:40;;;;;;;6.68;6.07;;;20.60;42.70;;;;;;4974416;28;20178;-67
2022/03/06 09:18:07;;;;;;;5.95;5.45;;;20.60;42.70;;;;;;4941491;28;20190;-68
2022/03/06 09:20:34;;;;;;;7.82;5.78;;;20.60;42.70;;;;;;4957365;28;20201;-68
2022/03/06 09:23:00;;;;;;;6.22;5.72;;;20.60;42.60;;;;;;4957470;28;20285;-69
2022/03/06 09:25:28;;;;;;;6.70;6.00;;;20.60;42.60;;;;;;4941236;28;20212;-67
2022/03/06 09:27:54;;;;;;;6.40;5.80;;;20.60;42.60;;;;;;4957144;28;20178;-68
2022/03/06 09:30:20;;;;;;;6.63;6.03;;;20.60;42.60;;;;;;4974267;28;20213;-69
2022/03/06 09:32:47;;;;;;;8.25;5.55;;;20.60;43.10;;;;;;4956969;28;20777;-68
2022/03/06 09:35:13;;;;;;;6.50;5.90;;;20.60;42.80;;;;;;4956480;28;20185;-68
2022/03/06 09:37:39;;;;;;;6.80;6.15;;;20.60;43.00;;;;;;4940771;28;20284;-69
2022/03/06 09:40:06;;;;;;;7.07;5.72;;;20.60;42.70;;;;;;4940758;28;20196;-68
2022/03/06 09:42:32;;;;;;;6.20;5.35;;;20.60;42.70;;;;;;4956928;28;20237;-68
2022/03/06 09:45:05;;;;;;;6.38;5.78;;;20.60;42.70;;;;;;4940856;28;20185;-68
2022/03/06 09:47:32;;;;;;;6.20;5.70;;;20.60;42.50;;;;;;4972874;28;20217;-68
2022/03/06 09:49:59;;;;;;;5.88;5.38;;;20.50;42.50;;;;;;4956653;28;20281;-68
2022/03/06 09:52:29;;;;;;;6.57;5.95;;;20.60;43.10;;;;;;4940991;28;20232;-68
2022/03/06 09:54:55;;;;;;;5.95;5.35;;;20.60;42.50;;;;;;4940700;28;20190;-68
2022/03/06 09:57:22;;;;;;;6.18;5.68;;;20.60;42.60;;;;;;4956555;28;20244;-68
2022/03/06 09:59:49;;;;;;;5.25;4.80;;;20.60;42.60;;;;;;4956649;28;20186;-68
2022/03/06 10:02:16;;;;;;;6.10;5.60;;;20.60;42.50;;;;;;4956391;28;20222;-68
2022/03/06 10:04:46;;;;;;;5.57;5.07;;;20.60;42.60;;;;;;4956660;28;20197;-68
2022/03/06 10:07:17;;;;;;;5.53;5.03;;;20.60;42.50;;;;;;4972782;28;20288;-68
2022/03/06 10:09:55;;;;;;;6.65;5.45;;;20.60;42.50;;;;;;4956699;28;20186;-68
2022/03/06 10:12:21;;;;;;;6.45;5.80;;;20.60;42.60;;;;;;4956312;28;20328;-67
2022/03/06 10:14:49;;;;;;;6.38;5.53;;;20.60;42.50;;;;;;4973537;28;20253;-68
2022/03/06 10:17:23;;;;;;;5.88;5.30;;;20.60;42.40;;;;;;4956339;28;20232;-68
2022/03/06 10:20:07;;;;;;;6.10;5.50;;;20.60;42.50;;;;;;4956614;28;20185;-68
2022/03/06 10:22:40;;;;;;;5.40;4.90;;;20.60;43.00;;;;;;4956301;28;20263;-68
2022/03/06 10:25:07;;;;;;;5.97;5.28;;;20.60;42.70;;;;;;4981788;28;20572;-68
2022/03/06 10:27:54;;;;;;;5.63;5.13;;;20.60;42.60;;;;;;4951485;28;20288;-68
2022/03/06 10:30:38;;;;;;;7.10;5.30;;;20.60;42.40;;;;;;4940441;28;20734;-68
2022/03/06 10:33:19;;;;;;;5.63;5.13;;;20.60;42.60;;;;;;4956006;28;20281;-68
2022/03/06 10:35:48;;;;;;;5.88;5.28;;;20.60;42.50;;;;;;4940004;28;20178;-68
2022/03/06 10:38:53;;;;;;;6.25;5.00;;;20.60;42.50;;;;;;4940563;28;20192;-68
2022/03/06 10:41:19;;;;;;;6.28;5.68;;;20.60;43.00;;;;;;4928953;28;20207;-68
2022/03/06 10:43:45;;;;;;;5.18;4.68;;;20.60;42.40;;;;;;4955956;28;20205;-68
2022/03/06 10:46:17;;;;;;;5.22;4.82;;;20.60;42.50;;;;;;4955936;28;20193;-68
2022/03/06 10:48:58;;;;;;;7.10;5.15;;;20.60;42.50;;;;;;4940022;28;20677;-68
2022/03/06 10:51:26;;;;;;;5.22;4.55;;;20.60;42.30;;;;;;4972620;28;20229;-69
2022/03/06 10:53:54;;;;;;;5.72;5.20;;;20.60;42.40;;;;;;4975921;28;20185;-69
2022/03/06 10:56:21;;;;;;;5.70;5.20;;;20.60;42.40;;;;;;4959592;28;20193;-68
2022/03/06 10:58:49;;;;;;;6.10;5.28;;;20.60;42.40;;;;;;4943687;28;20193;-69
2022/03/06 11:01:16;;;;;;;5.80;5.18;;;20.60;42.40;;;;;;4959485;28;20177;-69
2022/03/06 11:03:43;;;;;;;5.22;4.80;;;20.60;42.40;;;;;;4976508;28;20213;-69
2022/03/06 11:06:11;;;;;;;5.90;5.30;;;20.60;42.40;;;;;;4959095;28;20193;-68
2022/03/06 11:08:39;;;;;;;5.50;5.00;;;20.60;42.40;;;;;;4943883;28;20193;-68
2022/03/06 11:11:07;;;;;;;6.07;5.47;;;20.60;42.40;;;;;;4976764;28;20260;-68
2022/03/06 11:13:34;;;;;;;5.25;4.75;;;20.50;42.00;;;;;;4959362;28;20229;-68
2022/03/06 11:16:04;;;;;;;6.70;5.43;;;20.50;42.30;;;;;;4959481;28;20178;-68
2022/03/06 11:18:33;;;;;;;5.30;4.78;;;20.60;42.50;;;;;;4943516;28;20197;-69
2022/03/06 11:21:02;;;;;;;5.88;4.78;;;20.60;42.40;;;;;;4976640;28;20233;-68
2022/03/06 11:23:41;;;;;;;5.40;4.95;;;20.60;42.40;;;;;;4959476;28;20295;-68
2022/03/06 11:26:13;;;;;;;4.97;4.57;;;20.60;42.30;;;;;;4959129;28;20663;-68
2022/03/06 11:29:04;;;;;;;5.55;4.85;;;20.60;42.30;;;;;;4975223;28;20240;-68
2022/03/06 11:31:45;;;;;;;6.68;5.35;;;20.60;42.30;;;;;;4975371;28;20221;-68
2022/03/06 11:34:25;;;;;;;5.75;5.25;;;20.60;42.10;;;;;;4942921;28;20212;-68
2022/03/06 11:36:53;;;;;;;5.78;5.28;;;20.60;42.10;;;;;;4959089;28;20650;-68
2022/03/06 11:39:31;;;;;;;5.55;5.05;;;20.60;42.40;;;;;;4943036;28;20196;-68
2022/03/06 11:42:04;;;;;;;4.90;4.50;;;20.60;42.40;;;;;;4975333;28;20206;-68
2022/03/06 11:44:36;;;;;;;5.35;4.85;;;20.60;42.40;;;;;;4959242;28;20184;-68
2022/03/06 11:47:37;;;;;;;5.32;4.82;;;20.60;42.30;;;;;;4959198;28;20204;-67
2022/03/06 11:50:05;;;;;;;5.57;5.07;;;20.60;42.20;;;;;;4943256;28;20177;-68
2022/03/06 11:52:41;;;;;;;5.65;5.15;;;20.60;42.10;;;;;;4959550;28;20225;-68
2022/03/06 11:55:32;;;;;;;5.70;5.18;;;20.60;42.20;;;;;;4958806;28;20192;-68
2022/03/06 11:57:58;;;;;;;6.68;5.18;;;20.60;42.10;;;;;;4958637;28;20196;-68
2022/03/06 12:00:30;;;;;;;6.03;5.40;;;20.60;42.20;;;;;;4942506;28;20201;-68
2022/03/06 12:02:59;;;;;;;5.47;4.85;;;20.60;42.30;;;;;;4957229;28;20223;-69
2022/03/06 12:05:53;;;;;;;5.53;5.00;;;20.60;42.20;;;;;;4974486;28;20181;-69
2022/03/06 12:08:23;;;;;;;5.68;4.75;;;20.60;42.10;;;;;;4942878;28;20182;-68
2022/03/06 12:10:51;;;;;;;4.60;4.20;;;20.60;42.10;;;;;;4958747;28;20272;-68
2022/03/06 12:13:22;;;;;;;6.05;5.30;;;20.60;42.20;;;;;;4955160;28;20210;-68
2022/03/06 12:16:08;;;;;;;5.65;5.05;;;20.60;42.10;;;;;;4964090;28;20673;-69
2022/03/06 12:18:35;;;;;;;6.05;5.50;;;20.60;42.10;;;;;;4995506;28;20165;-67
2022/03/06 12:21:20;;;;;;;5.97;5.38;;;20.60;42.10;;;;;;4977384;28;20200;-68
2022/03/06 12:23:46;;;;;;;5.53;4.85;;;20.60;42.10;;;;;;4993920;28;20263;-68
2022/03/06 12:26:12;;;;;;;4.97;4.57;;;20.60;42.30;;;;;;4977547;28;20192;-67
2022/03/06 12:28:42;;;;;;;5.50;5.00;;;20.70;42.20;;;;;;4968802;28;20198;-68
2022/03/06 12:31:35;;;;;;;5.43;4.93;;;20.70;42.40;;;;;;4966365;28;20205;-67
2022/03/06 12:34:40;;;;;;;5.10;4.70;;;20.70;42.40;;;;;;4958146;28;20182;-68
2022/03/06 12:37:07;;;;;;;5.47;4.97;;;20.70;42.20;;;;;;4958113;28;20217;-68
2022/03/06 12:39:35;;;;;;;6.32;5.72;;;20.70;42.20;;;;;;4941850;28;20245;-69
2022/03/06 12:42:03;;;;;;;6.10;5.50;;;20.70;42.80;;;;;;4949890;28;20675;-69
2022/03/06 12:44:34;;;;;;;5.90;5.30;;;20.70;42.50;;;;;;4957604;28;20192;-70
2022/03/06 12:47:00;;;;;;;7.95;6.15;;;20.70;42.50;;;;;;4957929;28;20192;-70
2022/03/06 12:49:26;;;;;;;6.90;6.07;;;20.70;42.50;;;;;;4957636;28;20197;-70
2022/03/06 12:51:53;;;;;;;5.97;5.35;;;20.60;42.50;;;;;;4973718;28;20225;-71